createdAt,value
2023-04-16T00:02:05.516Z,4.40
2023-04-16T00:04:32.531Z,4.70
2023-04-16T00:06:59.313Z,4.03
2023-04-16T00:09:26.172Z,4.33
2023-04-16T00:11:52.908Z,4.13
2023-04-16T00:14:20.021Z,4.03
2023-04-16T00:16:47.230Z,4.50
2023-04-16T00:19:14.366Z,4.07
2023-04-16T00:21:41.240Z,4.47
2023-04-16T00:24:08.106Z,4.50
2023-04-16T00:26:35.267Z,4.30
2023-04-16T00:29:02.728Z,4.70
2023-04-16T00:31:31.297Z,4.30
2023-04-16T00:33:58.605Z,4.93
2023-04-16T00:36:27.145Z,5.07
2023-04-16T00:38:54.795Z,4.63
2023-04-16T00:41:23.108Z,5.27
2023-04-16T00:43:50.817Z,5.07
2023-04-16T00:46:20.092Z,5.27
2023-04-16T00:48:47.645Z,5.37
2023-04-16T00:51:14.873Z,4.97
2023-04-16T00:53:42.036Z,5.37
2023-04-16T00:56:09.870Z,5.53
2023-04-16T00:58:36.668Z,5.23
2023-04-16T01:01:04.052Z,5.30
2023-04-16T01:03:41.184Z,5.40
2023-04-16T01:06:08.338Z,5.27
2023-04-16T01:08:35.639Z,5.33
2023-04-16T01:11:02.898Z,5.33
2023-04-16T01:13:30.234Z,4.70
2023-04-16T01:15:57.364Z,4.43
2023-04-16T01:18:25.615Z,4.97
2023-04-16T01:20:52.611Z,5.07
2023-04-16T01:23:19.829Z,5.07
2023-04-16T01:25:47.827Z,5.60
2023-04-16T01:28:15.021Z,5.80
2023-04-16T01:30:41.848Z,7.87
2023-04-16T01:33:30.024Z,5.30
2023-04-16T01:35:56.739Z,5.63
2023-04-16T01:38:24.050Z,5.30
2023-04-16T01:40:55.430Z,6.03
2023-04-16T01:43:22.147Z,4.70
2023-04-16T01:45:49.707Z,8.17
2023-04-16T01:48:16.733Z,6.13
2023-04-16T01:50:43.824Z,5.27
2023-04-16T01:53:10.687Z,5.40
2023-04-16T01:55:37.369Z,9.23
2023-04-16T01:58:04.812Z,6.20
2023-04-16T02:00:34.902Z,4.80
2023-04-16T02:03:01.862Z,6.83
2023-04-16T02:05:29.121Z,5.43
2023-04-16T02:07:57.800Z,6.93
2023-04-16T02:10:24.588Z,7.03
2023-04-16T02:12:51.502Z,6.37
2023-04-16T02:15:18.786Z,6.90
2023-04-16T02:17:46.764Z,6.90
2023-04-16T02:20:13.845Z,6.97
2023-04-16T02:22:51.426Z,5.93
2023-04-16T02:25:21.199Z,6.97
2023-04-16T02:27:48.649Z,6.90
2023-04-16T02:30:35.158Z,5.23
2023-04-16T02:33:05.669Z,6.27
2023-04-16T02:35:33.936Z,6.73
2023-04-16T02:38:01.472Z,6.20
2023-04-16T02:40:28.534Z,6.77
2023-04-16T02:42:55.709Z,6.47
2023-04-16T02:45:23.404Z,5.83
2023-04-16T02:47:51.517Z,5.87
2023-04-16T02:50:18.944Z,6.13
2023-04-16T02:52:45.976Z,5.53
2023-04-16T02:55:12.891Z,5.10
2023-04-16T02:57:39.730Z,5.63
2023-04-16T03:00:07.821Z,5.77
2023-04-16T03:02:35.133Z,5.33
2023-04-16T03:05:03.181Z,4.93
2023-04-16T03:07:30.632Z,5.83
2023-04-16T03:09:57.400Z,5.50
2023-04-16T03:12:24.266Z,5.17
2023-04-16T03:14:54.767Z,5.60
2023-04-16T03:17:21.963Z,5.70
2023-04-16T03:19:50.754Z,5.20
2023-04-16T03:22:19.438Z,5.47
2023-04-16T03:24:46.545Z,5.10
2023-04-16T03:27:13.228Z,5.20
2023-04-16T03:29:40.055Z,5.57
2023-04-16T03:32:08.191Z,5.30
2023-04-16T03:34:37.117Z,5.07
2023-04-16T03:37:05.765Z,5.17
2023-04-16T03:39:34.357Z,4.93
2023-04-16T03:42:02.290Z,4.90
2023-04-16T03:44:29.958Z,4.73
2023-04-16T03:46:56.941Z,5.30
2023-04-16T03:49:23.821Z,4.90
2023-04-16T03:51:51.278Z,4.60
2023-04-16T03:54:20.121Z,5.03
2023-04-16T03:56:53.661Z,4.43
2023-04-16T03:59:21.045Z,4.60
2023-04-16T04:01:47.873Z,4.63
2023-04-16T04:04:15.303Z,4.60
2023-04-16T04:06:42.114Z,4.30
2023-04-16T04:09:09.191Z,4.33
2023-04-16T04:11:36.192Z,4.77
2023-04-16T04:14:05.481Z,4.63
2023-04-16T04:16:32.901Z,4.20
2023-04-16T04:19:00.463Z,4.00
2023-04-16T04:21:28.758Z,4.00
2023-04-16T04:23:56.130Z,4.07
2023-04-16T04:26:23.391Z,3.97
2023-04-16T04:28:51.272Z,3.80
2023-04-16T04:31:18.782Z,3.63
2023-04-16T04:33:46.124Z,3.80
2023-04-16T04:36:12.817Z,3.67
2023-04-16T04:38:39.848Z,3.47
2023-04-16T04:41:06.663Z,3.57
2023-04-16T04:43:36.718Z,3.10
2023-04-16T04:46:03.611Z,3.40
2023-04-16T04:48:32.047Z,2.90
2023-04-16T04:50:58.900Z,3.10
2023-04-16T04:53:25.686Z,2.80
2023-04-16T04:55:55.652Z,2.97
2023-04-16T04:58:25.736Z,2.87
2023-04-16T05:00:52.940Z,2.00
2023-04-16T05:03:21.879Z,2.17
2023-04-16T05:05:48.867Z,1.93
2023-04-16T05:08:15.712Z,2.23
2023-04-16T05:10:42.402Z,2.17
2023-04-16T05:13:09.117Z,1.80
2023-04-16T05:15:36.520Z,2.20
2023-04-16T05:18:03.467Z,1.70
2023-04-16T05:20:30.688Z,1.80
2023-04-16T05:22:57.415Z,2.50
2023-04-16T05:25:24.151Z,1.70
2023-04-16T05:27:51.561Z,1.77
2023-04-16T05:30:18.481Z,1.60
2023-04-16T05:32:45.336Z,1.43
2023-04-16T05:35:12.343Z,1.13
2023-04-16T05:37:39.030Z,0.93
2023-04-16T05:40:07.064Z,1.13
2023-04-16T05:42:33.793Z,0.90
2023-04-16T05:45:03.692Z,0.80
2023-04-16T05:47:30.681Z,0.87
2023-04-16T05:49:57.507Z,0.73
2023-04-16T05:52:24.264Z,0.80
2023-04-16T05:54:50.992Z,0.90
2023-04-16T05:57:17.689Z,0.77
2023-04-16T05:59:44.400Z,0.53
2023-04-16T06:02:11.309Z,0.50
2023-04-16T06:04:38.398Z,0.40
2023-04-16T06:07:05.227Z,1.50
2023-04-16T06:09:32.339Z,0.40
2023-04-16T06:11:59.830Z,0.60
2023-04-16T06:14:26.555Z,0.60
2023-04-16T06:16:53.677Z,0.60
2023-04-16T06:19:21.002Z,0.50
2023-04-16T06:21:47.810Z,0.30
2023-04-16T06:24:14.617Z,0.40
2023-04-16T06:26:41.300Z,0.30
2023-04-16T06:29:08.155Z,0.30
2023-04-16T06:31:35.114Z,0.30
2023-04-16T06:34:01.880Z,0.20
2023-04-16T06:36:29.152Z,0.30
2023-04-16T06:38:55.893Z,0.40
2023-04-16T06:41:23.714Z,0.30
2023-04-16T06:43:50.434Z,0.30
2023-04-16T06:46:17.864Z,0.20
2023-04-16T06:48:44.682Z,0.20
2023-04-16T06:51:11.738Z,0.30
2023-04-16T06:53:38.892Z,0.23
2023-04-16T06:56:06.390Z,0.30
2023-04-16T06:58:33.133Z,0.10
2023-04-16T07:01:00.233Z,0.40
2023-04-16T07:03:27.683Z,0.20
2023-04-16T07:05:54.554Z,0.10
2023-04-16T07:08:21.526Z,0.20
2023-04-16T07:10:48.473Z,0.20
2023-04-16T07:13:15.304Z,0.20
2023-04-16T07:15:42.026Z,0.37
2023-04-16T07:18:09.571Z,0.30
2023-04-16T07:20:37.737Z,0.20
2023-04-16T07:23:04.534Z,0.20
2023-04-16T07:25:31.277Z,0.20
2023-04-16T07:27:58.142Z,0.20
2023-04-16T07:30:25.046Z,0.20
2023-04-16T07:32:51.945Z,0.30
2023-04-16T07:35:18.722Z,0.37
2023-04-16T07:37:45.401Z,0.10
2023-04-16T07:40:12.381Z,0.20
2023-04-16T07:42:39.390Z,0.30
2023-04-16T07:45:06.997Z,0.10
2023-04-16T07:47:33.769Z,0.20
2023-04-16T07:50:00.490Z,0.10
2023-04-16T07:52:27.160Z,0.30
2023-04-16T07:54:54.333Z,0.10
2023-04-16T07:57:21.852Z,0.20
2023-04-16T07:59:48.672Z,0.10
2023-04-16T08:02:17.074Z,0.10
2023-04-16T08:04:44.663Z,0.10
2023-04-16T08:07:11.794Z,0.10
2023-04-16T08:09:47.756Z,0.10
2023-04-16T08:12:14.597Z,0.27
2023-04-16T08:14:41.505Z,0.30
2023-04-16T08:17:08.509Z,0.17
2023-04-16T08:19:35.202Z,0.20
2023-04-16T08:22:02.011Z,0.10
2023-04-16T08:24:29.056Z,0.20
2023-04-16T08:27:02.468Z,0.10
2023-04-16T08:29:38.688Z,0.20
2023-04-16T08:32:06.323Z,0.10
2023-04-16T08:34:33.075Z,10.80
2023-04-16T08:36:59.797Z,1.00
2023-04-16T08:39:26.609Z,0.30
2023-04-16T08:41:54.796Z,0.13
2023-04-16T08:44:27.716Z,0.17
2023-04-16T08:46:58.237Z,0.17
2023-04-16T08:49:26.860Z,0.17
2023-04-16T08:51:55.743Z,0.20
2023-04-16T08:54:28.718Z,1.07
2023-04-16T08:56:58.880Z,0.53
2023-04-16T08:59:26.756Z,4.67
2023-04-16T09:01:58.137Z,0.20
2023-04-16T09:04:29.422Z,0.20
2023-04-16T09:06:59.662Z,0.20
2023-04-16T09:09:26.908Z,0.20
2023-04-16T09:11:54.512Z,0.20
2023-04-16T09:14:22.683Z,0.20
2023-04-16T09:16:53.259Z,0.10
2023-04-16T09:19:20.078Z,0.20
2023-04-16T09:21:48.198Z,0.20
2023-04-16T09:24:15.049Z,0.30
2023-04-16T09:26:43.625Z,0.10
2023-04-16T09:29:10.884Z,0.20
2023-04-16T09:31:38.064Z,0.20
2023-04-16T09:34:09.357Z,0.13
2023-04-16T09:36:36.857Z,0.20
2023-04-16T09:39:04.124Z,0.20
2023-04-16T09:41:35.875Z,0.30
2023-04-16T09:44:06.948Z,0.97
2023-04-16T09:46:41.051Z,1.50
2023-04-16T09:49:13.487Z,0.20
2023-04-16T09:51:44.291Z,0.30
2023-04-16T09:54:11.278Z,0.10
2023-04-16T09:56:45.964Z,0.70
2023-04-16T09:59:24.598Z,0.20
2023-04-16T10:01:57.291Z,0.20
2023-04-16T10:04:53.355Z,0.20
2023-04-16T10:07:21.403Z,0.10
2023-04-16T10:09:49.722Z,0.20
2023-04-16T10:12:16.812Z,0.20
2023-04-16T10:14:43.738Z,0.20
2023-04-16T10:17:11.031Z,0.10
2023-04-16T10:19:38.455Z,0.20
2023-04-16T10:22:05.495Z,0.20
2023-04-16T10:24:33.974Z,0.20
2023-04-16T10:27:01.068Z,0.30
2023-04-16T10:29:29.831Z,0.20
2023-04-16T10:31:57.882Z,0.20
2023-04-16T10:34:26.188Z,0.20
2023-04-16T10:36:54.936Z,0.40
2023-04-16T10:39:23.828Z,0.40
2023-04-16T10:41:51.420Z,0.20
2023-04-16T10:44:19.344Z,0.10
2023-04-16T10:46:51.798Z,0.20
2023-04-16T10:49:23.755Z,0.10
2023-04-16T10:51:59.696Z,0.30
2023-04-16T10:54:27.778Z,0.20
2023-04-16T10:56:57.720Z,0.20
2023-04-16T10:59:26.005Z,0.30
2023-04-16T11:01:55.868Z,0.20
2023-04-16T11:04:25.835Z,0.30
2023-04-16T11:07:32.097Z,0.30
2023-04-16T11:10:00.065Z,0.17
2023-04-16T11:12:39.866Z,0.30
2023-04-16T11:15:11.496Z,0.20
2023-04-16T11:17:44.208Z,0.20
2023-04-16T11:20:26.163Z,0.20
2023-04-16T11:22:55.276Z,0.30
2023-04-16T11:25:27.074Z,0.20
2023-04-16T11:27:55.162Z,0.20
2023-04-16T11:30:41.664Z,0.20
2023-04-16T11:33:11.484Z,0.60
2023-04-16T11:35:40.578Z,0.30
2023-04-16T11:38:08.140Z,0.63
2023-04-16T11:40:36.882Z,0.20
2023-04-16T11:43:15.506Z,0.40
2023-04-16T11:46:12.957Z,3.30
2023-04-16T11:49:01.154Z,0.20
2023-04-16T11:51:27.945Z,0.40
2023-04-16T11:53:56.637Z,0.30
2023-04-16T11:56:28.490Z,0.20
2023-04-16T11:59:18.990Z,0.23
2023-04-16T12:01:48.578Z,0.20
2023-04-16T12:04:16.889Z,0.30
2023-04-16T12:07:13.147Z,0.50
2023-04-16T12:09:43.966Z,0.40
2023-04-16T12:12:28.381Z,0.20
2023-04-16T12:14:57.076Z,0.20
2023-04-16T12:17:24.689Z,0.30
2023-04-16T12:20:06.113Z,0.30
2023-04-16T12:22:36.994Z,0.20
2023-04-16T12:25:11.397Z,0.30
2023-04-16T12:27:43.438Z,0.20
2023-04-16T12:30:11.201Z,0.23
2023-04-16T12:32:38.038Z,0.30
2023-04-16T12:35:05.509Z,0.30
2023-04-16T12:37:32.305Z,0.50
2023-04-16T12:39:59.004Z,0.50
2023-04-16T12:42:26.456Z,0.60
2023-04-16T12:44:53.269Z,0.50
2023-04-16T12:47:20.381Z,0.40
2023-04-16T12:49:47.056Z,0.57
2023-04-16T12:52:13.812Z,0.40
2023-04-16T12:54:41.437Z,0.30
2023-04-16T12:57:08.224Z,0.60
2023-04-16T12:59:35.428Z,0.90
2023-04-16T13:02:02.891Z,0.50
2023-04-16T13:04:29.764Z,0.50
2023-04-16T13:06:56.650Z,0.30
2023-04-16T13:09:23.575Z,0.30
2023-04-16T13:11:50.560Z,0.40
2023-04-16T13:14:17.361Z,0.40
2023-04-16T13:16:44.061Z,0.30
2023-04-16T13:19:11.975Z,0.40
2023-04-16T13:21:39.148Z,0.30
2023-04-16T13:24:06.661Z,0.30
2023-04-16T13:26:33.392Z,0.50
2023-04-16T13:29:00.166Z,0.27
2023-04-16T13:31:27.333Z,0.50
2023-04-16T13:33:54.558Z,0.40
2023-04-16T13:36:22.151Z,0.20
2023-04-16T13:38:48.960Z,0.20
2023-04-16T13:41:15.851Z,0.20
2023-04-16T13:43:43.006Z,0.20
2023-04-16T13:46:09.818Z,0.20
2023-04-16T13:48:37.360Z,0.10
2023-04-16T13:51:04.322Z,0.23
2023-04-16T13:53:31.040Z,0.30
2023-04-16T13:55:58.259Z,0.30
2023-04-16T13:58:25.720Z,0.23
2023-04-16T14:00:52.736Z,0.20
2023-04-16T14:03:19.528Z,0.30
2023-04-16T14:05:46.622Z,0.20
2023-04-16T14:08:14.889Z,0.20
2023-04-16T14:10:42.347Z,0.30
2023-04-16T14:13:09.645Z,1.50
2023-04-16T14:15:36.471Z,0.30
2023-04-16T14:18:03.927Z,0.30
2023-04-16T14:20:30.776Z,0.47
2023-04-16T14:22:57.661Z,0.33
2023-04-16T14:25:24.774Z,0.40
2023-04-16T14:27:51.489Z,0.20
2023-04-16T14:30:18.317Z,0.30
2023-04-16T14:32:45.069Z,1.20
2023-04-16T14:35:12.697Z,0.27
2023-04-16T14:37:39.762Z,0.30
2023-04-16T14:40:10.313Z,0.60
2023-04-16T14:42:38.777Z,0.20
2023-04-16T14:45:06.813Z,0.30
2023-04-16T14:47:37.948Z,0.20
2023-04-16T14:50:05.557Z,0.27
2023-04-16T14:52:32.779Z,0.30
2023-04-16T14:54:59.843Z,0.30
2023-04-16T14:57:27.276Z,0.27
2023-04-16T14:59:54.384Z,0.30
2023-04-16T15:02:22.077Z,0.20
2023-04-16T15:04:49.117Z,0.20
2023-04-16T15:07:15.815Z,3.13
2023-04-16T15:09:43.017Z,1.13
2023-04-16T15:12:09.671Z,0.40
2023-04-16T15:14:36.734Z,0.20
2023-04-16T15:17:03.659Z,0.37
2023-04-16T15:19:30.600Z,0.20
2023-04-16T15:21:59.220Z,0.20
2023-04-16T15:24:26.710Z,0.30
2023-04-16T15:26:53.470Z,0.10
2023-04-16T15:29:20.390Z,0.50
2023-04-16T15:31:47.960Z,0.30
2023-04-16T15:34:14.745Z,0.33
2023-04-16T15:36:42.143Z,0.30
2023-04-16T15:39:09.645Z,0.90
2023-04-16T15:41:47.212Z,0.30
2023-04-16T15:44:27.142Z,0.40
2023-04-16T15:46:53.935Z,0.30
2023-04-16T15:49:20.695Z,0.53
2023-04-16T15:51:47.594Z,0.33
2023-04-16T15:54:14.590Z,0.40
2023-04-16T15:56:42.243Z,0.40
2023-04-16T15:59:09.482Z,0.50
2023-04-16T16:01:36.548Z,0.30
2023-04-16T16:04:07.866Z,0.67
2023-04-16T16:06:35.121Z,0.27
2023-04-16T16:09:01.871Z,0.20
2023-04-16T16:11:28.840Z,0.40
2023-04-16T16:13:55.665Z,0.50
2023-04-16T16:16:22.528Z,0.40
2023-04-16T16:18:49.348Z,0.40
2023-04-16T16:21:16.201Z,0.40
2023-04-16T16:23:43.714Z,0.23
2023-04-16T16:26:10.495Z,0.20
2023-04-16T16:28:41.176Z,0.40
2023-04-16T16:31:08.642Z,0.60
2023-04-16T16:33:35.439Z,0.40
2023-04-16T16:36:03.156Z,0.40
2023-04-16T16:38:30.063Z,0.50
2023-04-16T16:40:57.408Z,0.50
2023-04-16T16:43:24.205Z,0.50
2023-04-16T16:45:51.329Z,0.30
2023-04-16T16:48:18.016Z,0.30
2023-04-16T16:50:45.149Z,0.40
2023-04-16T16:53:11.877Z,0.30
2023-04-16T16:55:39.240Z,0.50
2023-04-16T16:58:06.271Z,0.40
2023-04-16T17:00:33.195Z,0.33
2023-04-16T17:03:00.547Z,0.50
2023-04-16T17:05:27.910Z,0.80
2023-04-16T17:07:54.682Z,0.43
2023-04-16T17:10:22.460Z,0.40
2023-04-16T17:12:51.098Z,0.40
2023-04-16T17:15:20.578Z,0.50
2023-04-16T17:17:48.570Z,0.50
2023-04-16T17:20:16.029Z,0.40
2023-04-16T17:22:43.184Z,0.40
2023-04-16T17:25:10.228Z,0.37
2023-04-16T17:27:37.068Z,0.57
2023-04-16T17:30:05.867Z,0.40
2023-04-16T17:32:32.959Z,0.30
2023-04-16T17:35:01.812Z,0.30
2023-04-16T17:37:29.508Z,0.30
2023-04-16T17:39:56.595Z,0.30
2023-04-16T17:42:24.662Z,0.30
2023-04-16T17:44:51.527Z,0.40
2023-04-16T17:47:18.300Z,0.33
2023-04-16T17:49:45.691Z,0.20
2023-04-16T17:52:12.444Z,0.20
2023-04-16T17:54:39.974Z,0.30
2023-04-16T17:57:06.763Z,0.23
2023-04-16T17:59:33.479Z,0.43
2023-04-16T18:02:00.872Z,0.40
2023-04-16T18:04:28.505Z,0.20
2023-04-16T18:06:55.401Z,0.33
2023-04-16T18:09:22.181Z,0.47
2023-04-16T18:11:48.901Z,0.20
2023-04-16T18:14:19.932Z,0.40
2023-04-16T18:16:49.968Z,0.30
2023-04-16T18:19:16.827Z,0.27
2023-04-16T18:21:45.032Z,0.30
2023-04-16T18:24:12.204Z,0.40
2023-04-16T18:26:40.977Z,0.30
2023-04-16T18:29:08.192Z,0.90
2023-04-16T18:31:36.003Z,0.30
2023-04-16T18:34:02.953Z,0.40
2023-04-16T18:36:31.268Z,0.40
2023-04-16T18:39:02.262Z,0.30
2023-04-16T18:41:31.350Z,0.50
2023-04-16T18:43:59.252Z,0.40
2023-04-16T18:46:27.734Z,0.40
2023-04-16T18:48:54.672Z,0.30
2023-04-16T18:51:21.440Z,0.37
2023-04-16T18:53:48.202Z,0.70
2023-04-16T18:56:15.476Z,0.40
2023-04-16T18:58:43.232Z,0.30
2023-04-16T19:01:14.317Z,0.40
2023-04-16T19:03:41.219Z,0.70
2023-04-16T19:06:08.175Z,0.70
2023-04-16T19:08:34.943Z,0.70
2023-04-16T19:11:01.945Z,0.60
2023-04-16T19:13:30.668Z,0.50
2023-04-16T19:16:00.609Z,0.50
2023-04-16T19:18:27.966Z,0.50
2023-04-16T19:21:01.764Z,0.40
2023-04-16T19:23:29.430Z,0.40
2023-04-16T19:25:56.963Z,0.40
2023-04-16T19:28:24.785Z,1.67
2023-04-16T19:30:52.761Z,1.30
2023-04-16T19:33:19.589Z,0.40
2023-04-16T19:35:47.392Z,2.00
2023-04-16T19:38:14.688Z,0.63
2023-04-16T19:40:46.915Z,0.50
2023-04-16T19:43:14.653Z,0.30
2023-04-16T19:45:46.132Z,0.30
2023-04-16T19:48:13.106Z,0.60
2023-04-16T19:50:41.315Z,0.43
2023-04-16T19:53:08.873Z,0.50
2023-04-16T19:55:35.706Z,0.43
2023-04-16T19:58:08.569Z,0.60
2023-04-16T20:00:41.008Z,0.60
2023-04-16T20:03:07.929Z,0.40
2023-04-16T20:05:34.822Z,0.50
2023-04-16T20:08:02.113Z,0.43
2023-04-16T20:10:31.473Z,0.40
2023-04-16T20:12:58.512Z,0.40
2023-04-16T20:15:25.435Z,0.50
2023-04-16T20:17:52.529Z,0.37
2023-04-16T20:20:19.327Z,0.50
2023-04-16T20:22:46.541Z,0.60
2023-04-16T20:25:15.072Z,0.50
2023-04-16T20:27:41.792Z,1.60
2023-04-16T20:30:08.964Z,0.60
2023-04-16T20:32:36.497Z,0.50
2023-04-16T20:35:05.176Z,0.40
2023-04-16T20:37:32.503Z,0.50
2023-04-16T20:39:59.943Z,0.50
2023-04-16T20:42:27.666Z,0.50
2023-04-16T20:44:56.713Z,0.60
2023-04-16T20:47:24.044Z,0.33
2023-04-16T20:49:53.013Z,0.50
2023-04-16T20:52:20.163Z,0.40
2023-04-16T20:54:47.846Z,0.40
2023-04-16T20:57:15.414Z,0.60
2023-04-16T20:59:42.792Z,0.40
2023-04-16T21:02:09.581Z,0.47
2023-04-16T21:04:36.505Z,0.57
2023-04-16T21:07:04.418Z,0.57
2023-04-16T21:09:31.997Z,0.53
2023-04-16T21:11:59.304Z,0.60
2023-04-16T21:14:26.073Z,0.40
2023-04-16T21:16:52.832Z,0.90
2023-04-16T21:19:20.051Z,0.50
2023-04-16T21:21:47.385Z,0.50
2023-04-16T21:24:14.310Z,0.50
2023-04-16T21:26:41.160Z,0.57
2023-04-16T21:29:07.866Z,0.57
2023-04-16T21:31:34.651Z,0.47
2023-04-16T21:34:02.380Z,0.60
2023-04-16T21:36:32.191Z,0.70
2023-04-16T21:38:59.049Z,0.90
2023-04-16T21:41:26.578Z,0.50
2023-04-16T21:43:53.417Z,0.50
2023-04-16T21:46:20.828Z,0.40
2023-04-16T21:48:48.525Z,0.57
2023-04-16T21:51:16.035Z,0.40
2023-04-16T21:53:43.128Z,0.40
2023-04-16T21:56:17.307Z,0.30
2023-04-16T21:58:44.068Z,0.40
2023-04-16T22:01:11.342Z,0.50
2023-04-16T22:03:40.453Z,0.50
2023-04-16T22:06:08.291Z,0.43
2023-04-16T22:08:35.023Z,0.40
2023-04-16T22:11:03.368Z,0.40
2023-04-16T22:13:32.672Z,0.40
2023-04-16T22:16:03.554Z,0.40
2023-04-16T22:18:33.068Z,0.40
2023-04-16T22:21:00.350Z,0.43
2023-04-16T22:23:28.118Z,0.33
2023-04-16T22:25:56.027Z,0.23
2023-04-16T22:28:23.665Z,0.57
2023-04-16T22:30:50.512Z,0.40
2023-04-16T22:33:17.781Z,0.40
2023-04-16T22:35:44.579Z,0.20
2023-04-16T22:38:11.692Z,0.53
2023-04-16T22:40:38.440Z,0.50
2023-04-16T22:43:05.307Z,0.40
2023-04-16T22:45:32.584Z,0.30
2023-04-16T22:47:59.402Z,0.20
2023-04-16T22:50:26.203Z,0.40
2023-04-16T22:52:53.233Z,0.33
2023-04-16T22:55:20.061Z,0.47
2023-04-16T22:57:47.510Z,0.50
2023-04-16T23:00:18.157Z,0.60
2023-04-16T23:02:45.667Z,0.40
2023-04-16T23:05:13.169Z,0.40
2023-04-16T23:07:40.098Z,0.30
2023-04-16T23:10:08.743Z,0.43
2023-04-16T23:12:37.470Z,0.53
2023-04-16T23:15:06.778Z,0.53
2023-04-16T23:17:35.105Z,0.50
2023-04-16T23:20:05.342Z,0.37
2023-04-16T23:22:33.047Z,0.50
2023-04-16T23:24:59.734Z,0.50
2023-04-16T23:27:26.556Z,0.40
2023-04-16T23:29:53.381Z,0.40
2023-04-16T23:32:20.166Z,0.40
2023-04-16T23:34:46.872Z,0.50
2023-04-16T23:37:13.595Z,0.30
2023-04-16T23:39:40.334Z,0.40
2023-04-16T23:42:07.208Z,0.40
2023-04-16T23:44:34.427Z,0.40
2023-04-16T23:47:01.789Z,0.40
2023-04-16T23:49:28.666Z,0.27
2023-04-16T23:51:55.440Z,0.53
2023-04-16T23:54:22.171Z,0.50
2023-04-16T23:56:49.495Z,0.43
2023-04-16T23:59:16.927Z,0.70
